createdAt,value
2022-09-07T00:14:41.358Z,100950.78
2022-09-07T00:29:43.293Z,100943.44
2022-09-07T00:45:00.535Z,100935.72
2022-09-07T01:00:03.366Z,100942.66
2022-09-07T01:15:06.247Z,100937.25
2022-09-07T01:30:14.674Z,100939.59
2022-09-07T01:45:23.988Z,100947.34
2022-09-07T02:00:26.398Z,100935.00
2022-09-07T02:15:39.283Z,100942.00
2022-09-07T02:30:41.567Z,100943.59
2022-09-07T02:45:52.503Z,100938.56
2022-09-07T03:01:32.075Z,100949.03
2022-09-07T03:16:33.987Z,100961.78
2022-09-07T03:31:36.498Z,100970.69
2022-09-07T03:46:38.531Z,100982.28
2022-09-07T04:01:40.497Z,100996.94
2022-09-07T04:16:43.260Z,101003.06
2022-09-07T04:31:45.197Z,101001.19
2022-09-07T04:46:47.154Z,100999.81
2022-09-07T05:01:49.092Z,101006.50
2022-09-07T05:16:51.216Z,101003.50
2022-09-07T05:31:53.567Z,100998.38
2022-09-07T05:46:55.556Z,101009.16
2022-09-07T06:17:48.125Z,101013.06
2022-09-07T06:32:50.102Z,101028.56
2022-09-07T06:47:58.486Z,101033.69
2022-09-07T07:03:00.445Z,101045.56
2022-09-07T07:18:19.338Z,101044.03
2022-09-07T07:33:22.575Z,101048.34
2022-09-07T08:03:35.429Z,101044.22
2022-09-07T08:18:38.623Z,101025.56
2022-09-07T08:33:40.724Z,101027.81
2022-09-07T08:48:43.455Z,101014.16
2022-09-07T09:19:19.001Z,100979.81
2022-09-07T09:34:25.530Z,100956.19
2022-09-07T09:49:36.429Z,100951.88
2022-09-07T10:04:38.275Z,100943.66
2022-09-07T10:19:42.730Z,100933.84
2022-09-07T10:35:07.526Z,100932.25
2022-09-07T10:50:22.508Z,100940.69
2022-09-07T11:05:39.873Z,100913.38
2022-09-07T11:21:03.762Z,100886.16
2022-09-07T11:36:21.127Z,100889.94
2022-09-07T11:51:44.688Z,100882.97
2022-09-07T12:07:04.506Z,100891.94
2022-09-07T12:22:20.629Z,100873.81
2022-09-07T12:37:40.586Z,100866.78
2022-09-07T12:52:49.064Z,100858.19
2022-09-07T13:08:08.349Z,100839.34
2022-09-07T13:23:28.538Z,100831.31
2022-09-07T13:38:32.616Z,100824.03
2022-09-07T13:53:44.063Z,100833.81
2022-09-07T14:08:49.884Z,100825.41
2022-09-07T14:23:51.926Z,100818.09
2022-09-07T14:39:10.313Z,100827.41
2022-09-07T14:54:21.392Z,100818.88
2022-09-07T15:09:30.922Z,100816.50
2022-09-07T15:24:35.944Z,100819.59
2022-09-07T15:39:40.619Z,100808.81
2022-09-07T15:54:43.388Z,100809.03
2022-09-07T16:09:45.653Z,100815.31
2022-09-07T16:24:48.213Z,100822.47
2022-09-07T16:39:51.641Z,100839.09
2022-09-07T16:54:53.660Z,100868.88
2022-09-07T17:25:34.526Z,100878.81
2022-09-07T17:40:36.352Z,100887.94
2022-09-07T17:55:38.340Z,100893.03
2022-09-07T18:26:02.464Z,100903.47
2022-09-07T18:41:10.431Z,100901.25
2022-09-07T18:56:20.399Z,100900.75
2022-09-07T19:11:25.288Z,100916.13
2022-09-07T19:26:29.857Z,100900.50
2022-09-07T19:41:32.357Z,100890.16
2022-09-07T19:56:38.014Z,100896.66
2022-09-07T20:11:46.101Z,100902.00
2022-09-07T20:26:48.835Z,100893.31
2022-09-07T20:41:50.961Z,100892.00
2022-09-07T20:56:53.066Z,100886.88
2022-09-07T21:11:57.172Z,100888.72
2022-09-07T21:26:59.069Z,100890.78
2022-09-07T21:42:00.847Z,100891.63
2022-09-07T21:57:02.738Z,100878.13
2022-09-07T22:12:04.699Z,100869.13
2022-09-07T22:27:06.539Z,100848.69
2022-09-07T22:42:08.296Z,100843.19
2022-09-07T22:57:10.556Z,100827.09
2022-09-07T23:12:12.365Z,100830.75
2022-09-07T23:27:14.211Z,100820.81
2022-09-07T23:42:16.063Z,100819.94
2022-09-07T23:57:17.949Z,100814.72
